Time;durP1;ratioP1;P1;durP2;ratioP2;P2;SDS_P1;SDS_P2;PMS_P1;PMS_P2;Temp;Humidity;BMP_temperature;BMP_pressure;BME280_temperature;BME280_humidity;BME280_pressure;Samples;Min_cycle;Max_cycle;Signal;HPM_P1;HPM_P2
2021/01/31 00:00:47;;;;;;;20.32;15.58;;;;;;;0.88;67.96;92855.55;1808544;79;21530;-57
2021/01/31 00:03:20;;;;;;;22.13;15.35;;;;;;;0.86;67.48;92864.69;1808373;79;21097;-56
2021/01/31 00:05:49;;;;;;;24.98;16.70;;;;;;;0.79;67.47;92865.66;1808482;78;21077;-56
2021/01/31 00:08:19;;;;;;;25.12;16.00;;;;;;;0.74;67.26;92855.98;1808614;79;21054;-56
2021/01/31 00:10:48;;;;;;;22.05;15.13;;;;;;;0.75;67.28;92865.00;1808480;79;21184;-57
2021/01/31 00:13:16;;;;;;;18.67;13.53;;;;;;;0.80;67.10;92856.34;1808135;79;21077;-56
2021/01/31 00:15:47;;;;;;;22.55;15.38;;;;;;;0.85;66.34;92866.66;1807920;79;21096;-56
2021/01/31 00:18:18;;;;;;;21.30;14.98;;;;;;;0.72;65.77;92860.45;1808002;78;21081;-56
2021/01/31 00:20:49;;;;;;;23.15;15.50;;;;;;;0.56;65.87;92870.00;1807773;79;21096;-56
2021/01/31 00:23:17;;;;;;;22.55;15.35;;;;;;;0.47;66.16;92873.94;1807835;79;21414;-56
2021/01/31 00:25:45;;;;;;;22.67;15.32;;;;;;;0.47;66.12;92879.92;1807852;78;21115;-56
2021/01/31 00:28:15;;;;;;;22.02;14.90;;;;;;;0.53;65.80;92892.50;1808003;79;21113;-56
2021/01/31 00:30:45;;;;;;;22.17;13.75;;;;;;;0.46;65.70;92886.52;1807984;79;21156;-58
2021/01/31 00:33:20;;;;;;;20.97;14.50;;;;;;;0.34;65.74;92882.59;1807913;79;21148;-56
2021/01/31 00:35:50;;;;;;;23.47;16.12;;;;;;;0.29;65.87;92891.81;1807927;78;21443;-55
2021/01/31 00:38:21;;;;;;;21.87;14.30;;;;;;;0.28;65.85;92888.95;1808016;78;21073;-57
2021/01/31 00:40:49;;;;;;;21.10;14.58;;;;;;;0.28;66.22;92893.00;1808062;79;21470;-57
2021/01/31 00:43:18;;;;;;;24.12;15.65;;;;;;;0.31;66.07;92899.67;1807824;79;21073;-57
2021/01/31 00:45:47;;;;;;;25.72;16.90;;;;;;;0.29;66.10;92899.34;1807963;78;21061;-56
2021/01/31 00:48:17;;;;;;;20.88;14.40;;;;;;;0.26;66.29;92886.66;1807898;78;21275;-57
2021/01/31 00:50:46;;;;;;;19.50;14.68;;;;;;;0.35;66.24;92895.50;1808032;79;21160;-56
2021/01/31 00:53:19;;;;;;;24.43;16.00;;;;;;;0.39;66.14;92902.95;1808004;78;21064;-56
2021/01/31 00:55:49;;;;;;;21.77;15.45;;;;;;;0.35;66.12;92900.33;1807896;79;21494;-56
2021/01/31 00:58:21;;;;;;;20.75;14.40;;;;;;;0.45;66.42;92901.23;1807461;79;21188;-56
2021/01/31 01:00:50;;;;;;;18.12;13.15;;;;;;;0.57;65.93;92908.64;1807835;78;21363;-57
2021/01/31 01:03:19;;;;;;;19.27;14.15;;;;;;;0.53;65.52;92914.13;1812422;79;21092;-56
2021/01/31 01:05:59;;;;;;;19.95;14.60;;;;;;;0.44;65.64;92916.69;1813015;78;21101;-56
2021/01/31 01:08:28;;;;;;;19.92;14.95;;;;;;;0.42;65.66;92916.97;1813654;79;21485;-57
2021/01/31 01:10:57;;;;;;;21.87;14.18;;;;;;;0.34;66.03;92916.39;1813594;79;21466;-56
2021/01/31 01:13:25;;;;;;;15.60;13.03;;;;;;;0.31;65.87;92930.77;1813807;79;22179;-57
2021/01/31 01:15:53;;;;;;;21.70;16.35;;;;;;;0.30;65.92;92918.44;1813810;78;21544;-55
2021/01/31 01:18:22;;;;;;;26.60;16.90;;;;;;;0.28;66.01;92915.41;1813626;78;21109;-56
2021/01/31 01:20:51;;;;;;;27.37;17.45;;;;;;;0.31;65.98;92924.59;1813847;79;21137;-56
2021/01/31 01:23:20;;;;;;;26.77;18.87;;;;;;;0.27;65.90;92920.64;1813708;79;21639;-60
2021/01/31 01:25:49;;;;;;;24.02;17.32;;;;;;;0.36;66.23;92928.89;1813561;78;21154;-61
2021/01/31 01:28:17;;;;;;;24.27;17.87;;;;;;;0.41;65.91;92929.71;1813631;78;21141;-56
2021/01/31 01:30:47;;;;;;;21.52;16.15;;;;;;;0.48;65.74;92928.77;1813781;79;21082;-56
2021/01/31 01:33:15;;;;;;;31.52;20.12;;;;;;;0.46;65.46;92935.20;1813709;79;21065;-57
2021/01/31 01:35:44;;;;;;;55.45;35.68;;;;;;;0.33;65.92;92946.55;1813796;79;21120;-56
2021/01/31 01:38:12;;;;;;;42.25;26.20;;;;;;;0.37;66.18;92946.62;1813479;77;21561;-56
2021/01/31 01:40:41;;;;;;;28.92;20.32;;;;;;;0.46;65.80;92940.03;1813592;79;21671;-55
2021/01/31 01:43:18;;;;;;;23.40;15.60;;;;;;;0.44;65.69;92953.19;1813623;79;21442;-55
2021/01/31 01:46:09;;;;;;;25.60;15.90;;;;;;;0.40;65.53;92960.64;1813768;79;21069;-56
2021/01/31 01:48:37;;;;;;;26.85;17.27;;;;;;;0.30;65.94;92962.27;1811507;79;21053;-57
2021/01/31 01:51:06;;;;;;;26.97;17.20;;;;;;;0.40;66.19;92957.20;1813631;79;23455;-57
2021/01/31 01:53:34;;;;;;;28.52;17.57;;;;;;;0.53;65.68;92965.52;1787029;79;21148;-57
2021/01/31 01:56:28;;;;;;;29.92;19.37;;;;;;;0.49;65.68;92956.75;1813600;79;21101;-55
2021/01/31 01:58:57;;;;;;;37.70;22.15;;;;;;;0.43;65.71;92953.03;1813598;79;21037;-56
2021/01/31 02:01:25;;;;;;;31.25;19.85;;;;;;;0.41;66.00;92959.45;1813573;78;21619;-56
2021/01/31 02:03:55;;;;;;;32.50;21.25;;;;;;;0.48;66.21;92958.52;1808243;79;21255;-56
2021/01/31 02:06:26;;;;;;;34.23;21.68;;;;;;;0.60;66.04;92966.67;1807736;79;21188;-56
2021/01/31 02:08:55;;;;;;;29.15;18.77;;;;;;;0.64;65.94;92965.23;1807856;79;21109;-56
2021/01/31 02:11:23;;;;;;;26.00;17.32;;;;;;;0.72;65.87;92960.56;1807817;78;21552;-55
2021/01/31 02:13:59;;;;;;;23.75;17.62;;;;;;;0.70;65.62;92965.64;1807762;78;21560;-56
2021/01/31 02:16:53;;;;;;;22.48;15.50;;;;;;;0.61;65.76;92972.25;1807947;79;22326;-55
2021/01/31 02:19:43;;;;;;;21.05;15.63;;;;;;;0.60;65.77;92976.14;1807761;78;21117;-56
2021/01/31 02:22:35;;;;;;;22.20;15.90;;;;;;;0.54;65.71;92985.20;1807758;79;21145;-56
2021/01/31 02:25:36;;;;;;;20.55;14.75;;;;;;;0.40;65.88;92975.52;1807929;79;21541;-55
2021/01/31 02:28:44;;;;;;;22.77;15.48;;;;;;;0.40;66.14;92983.63;1807919;78;21120;-55
2021/01/31 02:31:53;;;;;;;21.10;16.10;;;;;;;0.40;65.89;92991.74;1807977;79;22176;-55
2021/01/31 02:34:30;;;;;;;29.67;18.65;;;;;;;0.35;66.29;92997.67;1807740;79;21100;-56
2021/01/31 02:37:40;;;;;;;30.57;19.12;;;;;;;0.35;66.31;93005.02;1807880;78;21561;-55
2021/01/31 02:40:14;;;;;;;37.35;22.05;;;;;;;0.27;66.06;93005.81;1807822;79;21060;-56
2021/01/31 02:43:12;;;;;;;29.77;19.05;;;;;;;0.27;66.86;93001.75;1909953;74;22169;-56
2021/01/31 02:45:47;;;;;;;31.90;20.05;;;;;;;0.36;66.48;93004.60;1849950;77;21435;-56
2021/01/31 02:48:35;;;;;;;29.42;19.20;;;;;;;0.39;66.25;93013.20;1849916;77;21352;-55
2021/01/31 02:51:17;;;;;;;29.42;19.10;;;;;;;0.33;66.14;93008.16;1849555;77;21133;-57
2021/01/31 02:54:00;;;;;;;26.90;18.50;;;;;;;0.41;66.12;93014.16;1849987;77;21533;-56
2021/01/31 02:57:01;;;;;;;29.92;20.00;;;;;;;0.32;65.73;93008.56;1850045;77;21042;-57
2021/01/31 02:59:50;;;;;;;28.95;18.55;;;;;;;0.25;65.93;93015.52;1849964;77;21494;-58
2021/01/31 03:02:22;;;;;;;31.95;19.95;;;;;;;0.09;66.22;93015.52;1849956;77;22087;-56
2021/01/31 03:04:57;;;;;;;28.83;19.15;;;;;;;0.13;66.57;93022.37;1849839;77;20891;-56
2021/01/31 03:07:29;;;;;;;27.60;18.80;;;;;;;0.20;66.34;93019.48;1819984;77;20975;-57
2021/01/31 03:10:12;;;;;;;28.15;18.55;;;;;;;0.23;66.15;93019.23;1849838;77;21497;-56
2021/01/31 03:12:48;;;;;;;29.70;19.12;;;;;;;0.25;66.10;93017.61;1850158;77;21033;-56
2021/01/31 03:15:21;;;;;;;30.40;19.25;;;;;;;0.22;66.37;93009.00;1849873;77;21350;-56
2021/01/31 03:18:03;;;;;;;45.90;25.80;;;;;;;0.31;66.25;93009.17;1850040;77;21498;-56
2021/01/31 03:20:37;;;;;;;38.10;24.70;;;;;;;0.40;66.24;93019.39;1850092;77;21143;-57
2021/01/31 03:23:22;;;;;;;41.92;23.05;;;;;;;0.53;65.76;93014.20;1820477;77;21580;-56
2021/01/31 03:25:54;;;;;;;42.43;23.98;;;;;;;0.62;65.40;93008.19;1850009;77;21060;-57
2021/01/31 03:28:22;;;;;;;40.80;24.70;;;;;;;0.37;65.35;93022.34;1850112;77;21346;-56
2021/01/31 03:30:51;;;;;;;39.88;25.10;;;;;;;0.37;65.35;93022.34;1849738;77;21569;-57
2021/01/31 03:33:37;;;;;;;43.17;29.20;;;;;;;0.37;65.78;93019.64;1849812;77;21037;-57
2021/01/31 03:36:06;;;;;;;44.53;27.67;;;;;;;0.46;65.98;93017.11;1822485;77;21073;-56
2021/01/31 03:38:39;;;;;;;44.73;27.40;;;;;;;0.48;65.58;93017.44;1883650;76;21546;-55
2021/01/31 03:41:14;;;;;;;44.05;26.48;;;;;;;0.45;65.45;93020.22;1856322;76;21211;-56
2021/01/31 03:43:43;;;;;;;32.53;22.45;;;;;;;0.39;65.82;93017.27;1859737;76;21080;-58
2021/01/31 03:46:34;;;;;;;32.58;22.37;;;;;;;0.41;65.64;93018.95;1885013;76;21020;-57
2021/01/31 03:49:11;;;;;;;31.68;21.55;;;;;;;0.37;65.98;93018.89;1858586;76;21173;-56
2021/01/31 03:51:39;;;;;;;39.35;25.55;;;;;;;0.43;65.79;93023.34;1884597;76;21036;-57
2021/01/31 03:54:08;;;;;;;35.13;23.83;;;;;;;0.49;66.10;93027.07;1884433;76;21185;-57
2021/01/31 03:56:54;;;;;;;43.70;26.00;;;;;;;0.59;65.74;93021.97;1884348;76;21099;-56
2021/01/31 03:59:32;;;;;;;54.20;29.95;;;;;;;0.55;65.35;93028.06;1884597;76;21040;-56
2021/01/31 04:02:01;;;;;;;44.27;28.27;;;;;;;0.42;65.74;93024.53;1884748;76;21457;-56
2021/01/31 04:04:36;;;;;;;37.40;23.38;;;;;;;0.38;65.78;93031.97;1884762;76;21575;-57
2021/01/31 04:07:06;;;;;;;39.98;24.70;;;;;;;0.39;65.50;93035.45;1782949;79;22131;-55
2021/01/31 04:09:38;;;;;;;33.05;21.90;;;;;;;0.29;65.64;93044.00;1825882;78;21119;-56
2021/01/31 04:12:08;;;;;;;31.05;21.50;;;;;;;0.28;66.05;93045.18;1807615;79;21004;-60
2021/01/31 04:15:00;;;;;;;30.60;18.57;;;;;;;0.31;66.06;93042.20;1825831;78;21479;-56
2021/01/31 04:17:29;;;;;;;32.30;21.97;;;;;;;0.39;65.54;93041.61;1807510;79;21095;-60
2021/01/31 04:19:57;;;;;;;39.30;24.43;;;;;;;0.26;65.31;93049.48;1825737;78;21265;-56
2021/01/31 04:22:25;;;;;;;36.90;22.85;;;;;;;0.09;65.63;93057.41;1807212;79;21143;-55
2021/01/31 04:24:55;;;;;;;33.88;22.60;;;;;;;0.04;66.26;93061.38;1825736;78;21563;-56
2021/01/31 04:27:23;;;;;;;31.27;20.08;;;;;;;0.14;66.18;93066.36;1807292;79;21480;-56
2021/01/31 04:29:52;;;;;;;29.65;20.40;;;;;;;0.19;65.91;93068.58;1825830;78;21610;-56
2021/01/31 04:32:20;;;;;;;28.15;18.48;;;;;;;0.11;65.82;93073.39;1807489;79;22012;-55
2021/01/31 04:34:49;;;;;;;26.15;18.65;;;;;;;0.02;66.04;93077.25;1825678;78;21087;-56
2021/01/31 04:37:20;;;;;;;27.65;18.02;;;;;;;-0.06;65.99;93084.59;1807251;79;21076;-56
2021/01/31 04:39:48;;;;;;;26.35;18.57;;;;;;;-0.15;66.28;93085.00;1825776;78;21606;-57
2021/01/31 04:42:18;;;;;;;24.10;18.23;;;;;;;-0.17;66.77;93088.13;1806966;79;21457;-56
2021/01/31 04:44:49;;;;;;;25.82;17.67;;;;;;;-0.05;66.66;93089.42;1825773;78;22270;-56
2021/01/31 04:47:34;;;;;;;;;;;;;;;0.01;66.53;93099.31;1809388;79;21064;-55
2021/01/31 04:50:18;;;;;;;24.32;15.72;;;;;;;0.06;66.33;93094.14;1839661;78;20214;-56
2021/01/31 04:53:13;;;;;;;23.67;17.70;;;;;;;0.04;66.21;93093.80;1806593;79;21066;-56
2021/01/31 04:56:04;;;;;;;25.32;17.07;;;;;;;-0.05;66.32;93094.82;1825401;78;21480;-56
2021/01/31 04:58:44;;;;;;;27.77;18.00;;;;;;;-0.12;66.58;93103.06;1806800;79;22303;-56
2021/01/31 05:01:23;;;;;;;31.73;18.48;;;;;;;-0.15;66.84;93097.16;1825582;78;21119;-57
2021/01/31 05:04:03;;;;;;;34.88;21.10;;;;;;;-0.06;67.13;93102.76;1806726;79;21048;-56
2021/01/31 05:06:37;;;;;;;44.18;23.95;;;;;;;0.15;66.85;93107.08;1825637;78;21162;-56
2021/01/31 05:09:05;;;;;;;;;;;;;;;0.32;66.43;93106.69;1809517;79;21087;-57
2021/01/31 05:12:16;;;;;;;52.88;27.02;;;;;;;0.41;66.04;93101.43;1806723;79;21298;-57
2021/01/31 05:14:58;;;;;;;61.90;34.18;;;;;;;0.37;65.83;93107.52;1825609;78;21131;-56
2021/01/31 05:17:26;;;;;;;59.93;31.68;;;;;;;0.26;66.09;93113.02;1806952;79;21627;-56
2021/01/31 05:19:57;;;;;;;53.58;30.77;;;;;;;0.31;66.21;93111.92;1825628;78;21555;-56
2021/01/31 05:22:29;;;;;;;77.95;36.88;;;;;;;0.42;65.87;93121.88;1806701;79;21151;-57
2021/01/31 05:24:57;;;;;;;70.30;34.45;;;;;;;0.48;65.80;93120.21;1825649;78;21204;-55
2021/01/31 05:27:30;;;;;;;61.13;31.75;;;;;;;0.56;65.44;93118.84;1806717;79;21563;-57
2021/01/31 05:29:58;;;;;;;47.10;27.67;;;;;;;0.50;65.08;93124.61;1825936;78;21056;-57
2021/01/31 05:32:26;;;;;;;45.70;26.48;;;;;;;0.44;65.42;93126.27;1806697;79;21543;-57
2021/01/31 05:34:58;;;;;;;39.33;25.60;;;;;;;0.36;65.24;93126.86;1825645;78;21559;-56
2021/01/31 05:37:30;;;;;;;42.73;24.92;;;;;;;0.20;65.44;93128.22;1806663;78;21402;-55
2021/01/31 05:40:06;;;;;;;57.20;31.07;;;;;;;0.08;65.98;93132.92;1806697;79;21512;-57
2021/01/31 05:42:41;;;;;;;65.65;32.28;;;;;;;0.04;65.83;93143.80;1825456;78;21095;-56
2021/01/31 05:45:20;;;;;;;64.55;32.45;;;;;;;-0.02;66.38;93144.14;1781432;79;21472;-57
2021/01/31 05:47:50;;;;;;;48.55;26.95;;;;;;;0.08;66.22;93151.23;1824212;78;21055;-56
2021/01/31 05:50:32;;;;;;;48.83;27.75;;;;;;;0.09;66.06;93148.73;1806636;79;21194;-57
2021/01/31 05:53:25;;;;;;;44.10;25.82;;;;;;;0.06;66.08;93148.80;1825701;78;21103;-58
2021/01/31 05:56:22;;;;;;;38.02;23.90;;;;;;;0.12;65.89;93154.65;1806824;79;21107;-56
2021/01/31 05:59:04;;;;;;;41.02;25.65;;;;;;;0.18;66.07;93163.77;1825602;78;21063;-57
2021/01/31 06:01:33;;;;;;;43.05;28.10;;;;;;;0.25;65.79;93162.25;1806659;79;21111;-57
2021/01/31 06:04:13;;;;;;;46.98;30.25;;;;;;;0.22;65.49;93163.70;1825736;78;22190;-57
2021/01/31 06:06:42;;;;;;;38.55;25.35;;;;;;;0.18;65.43;93167.05;1806903;79;21167;-57
2021/01/31 06:09:49;;;;;;;35.25;25.23;;;;;;;0.08;65.52;93167.45;1825891;78;21061;-58
2021/01/31 06:12:24;;;;;;;30.43;21.35;;;;;;;-0.02;65.96;93169.64;1780273;79;21469;-56
2021/01/31 06:15:31;;;;;;;24.70;18.40;;;;;;;-0.07;66.13;93175.55;1825721;78;21568;-57
2021/01/31 06:18:06;;;;;;;26.52;20.17;;;;;;;-0.16;66.19;93172.06;1770348;79;22266;-57
2021/01/31 06:20:37;;;;;;;27.70;19.77;;;;;;;-0.23;66.62;93172.80;1825520;78;21119;-58
2021/01/31 06:23:05;;;;;;;24.40;17.77;;;;;;;-0.16;66.75;93180.73;1806489;79;21017;-58
2021/01/31 06:25:39;;;;;;;25.62;18.07;;;;;;;-0.14;66.68;93184.56;1825650;78;21158;-58
2021/01/31 06:28:15;;;;;;;31.60;20.62;;;;;;;-0.09;66.71;93185.98;1806895;79;21143;-59
2021/01/31 06:31:31;;;;;;;34.38;21.42;;;;;;;-0.04;66.47;93193.63;1807014;79;22315;-59
2021/01/31 06:33:59;;;;;;;32.78;22.82;;;;;;;0.02;66.63;93190.77;1825948;78;21087;-63
2021/01/31 06:37:10;;;;;;;30.43;20.57;;;;;;;0.12;66.21;93197.13;1807086;79;21619;-58
2021/01/31 06:39:59;;;;;;;27.15;18.10;;;;;;;0.20;66.21;93196.55;1825851;78;21511;-57
2021/01/31 06:42:48;;;;;;;31.17;20.85;;;;;;;0.24;65.51;93202.64;1806594;79;21095;-57
2021/01/31 06:45:21;;;;;;;43.25;28.45;;;;;;;0.16;65.78;93209.39;1825477;78;21202;-58
2021/01/31 06:48:48;;;;;;;39.63;26.17;;;;;;;0.19;65.59;93213.95;1806627;79;21071;-58
2021/01/31 06:51:43;;;;;;;34.83;23.45;;;;;;;0.19;65.53;93221.32;1825658;78;21119;-57
2021/01/31 06:54:27;;;;;;;32.85;22.75;;;;;;;0.13;65.77;93233.79;1806816;78;21643;-58
2021/01/31 06:57:30;;;;;;;36.08;24.70;;;;;;;0.19;65.84;93231.53;1826083;78;21535;-62
2021/01/31 07:00:12;;;;;;;34.30;22.73;;;;;;;0.41;65.80;93232.59;1807268;78;21150;-58
2021/01/31 07:03:05;;;;;;;36.60;23.80;;;;;;;0.73;64.97;93243.48;1817945;78;21079;-57
2021/01/31 07:06:15;;;;;;;36.00;24.82;;;;;;;0.77;64.18;93242.05;1806615;79;21561;-57
2021/01/31 07:09:01;;;;;;;35.20;24.67;;;;;;;0.73;64.05;93246.76;1825496;78;21589;-58
2021/01/31 07:11:44;;;;;;;35.73;24.47;;;;;;;0.75;64.22;93249.23;1806657;79;21092;-59
2021/01/31 07:14:35;;;;;;;34.33;23.20;;;;;;;0.92;64.03;93246.70;1825708;78;21290;-59
2021/01/31 07:17:21;;;;;;;36.15;22.95;;;;;;;1.10;63.33;93245.69;1806589;79;21111;-57
2021/01/31 07:20:13;;;;;;;31.17;21.60;;;;;;;1.06;62.83;93246.38;1825578;78;21059;-57
2021/01/31 07:22:46;;;;;;;29.23;19.17;;;;;;;0.96;62.70;93250.69;1806618;79;21064;-58
2021/01/31 07:25:26;;;;;;;29.40;19.07;;;;;;;0.92;63.03;93255.43;1825789;78;21551;-58
2021/01/31 07:28:21;;;;;;;31.93;20.43;;;;;;;0.89;62.78;93257.03;1780180;79;21389;-57
2021/01/31 07:31:10;;;;;;;25.55;16.62;;;;;;;0.87;63.20;93260.75;1825789;78;21079;-58
2021/01/31 07:34:04;;;;;;;24.75;17.75;;;;;;;0.91;62.86;93269.54;1806878;79;21064;-57
2021/01/31 07:36:42;;;;;;;26.60;18.35;;;;;;;0.78;62.78;93263.26;1825679;78;21186;-59
2021/01/31 07:39:17;;;;;;;27.98;18.30;;;;;;;0.74;63.54;93275.37;1806900;79;21071;-56
2021/01/31 07:41:54;;;;;;;27.52;17.70;;;;;;;0.87;63.37;93273.50;1773093;78;21217;-57
2021/01/31 07:44:26;;;;;;;36.17;21.97;;;;;;;1.00;63.04;93276.47;1806622;79;21171;-58
2021/01/31 07:46:59;;;;;;;25.97;16.48;;;;;;;0.95;62.75;93272.17;1825921;78;21087;-58
2021/01/31 07:49:57;;;;;;;29.10;18.20;;;;;;;0.88;62.80;93276.38;1806777;79;21036;-58
2021/01/31 07:52:27;;;;;;;23.40;17.48;;;;;;;0.73;62.99;93281.94;1797937;78;21591;-58
2021/01/31 07:55:18;;;;;;;21.97;15.13;;;;;;;0.69;63.46;93281.26;1806841;78;22286;-57
2021/01/31 07:58:22;;;;;;;22.75;15.35;;;;;;;0.71;63.39;93280.24;1824681;78;21095;-59
2021/01/31 08:00:52;;;;;;;21.55;14.98;;;;;;;0.67;63.50;93283.63;1806805;79;21501;-57
2021/01/31 08:03:34;;;;;;;27.87;19.10;;;;;;;0.67;63.74;93286.33;1825683;78;21473;-57
2021/01/31 08:06:35;;;;;;;33.33;20.02;;;;;;;0.72;63.82;93292.01;1807027;79;21178;-58
2021/01/31 08:09:04;;;;;;;28.80;18.42;;;;;;;0.81;63.91;93284.67;1825831;78;22163;-58
2021/01/31 08:11:40;;;;;;;26.37;18.15;;;;;;;0.94;63.35;93296.37;1806692;79;21494;-59
2021/01/31 08:14:11;;;;;;;28.57;17.70;;;;;;;0.93;63.30;93295.59;1823947;78;21103;-57
2021/01/31 08:16:54;;;;;;;24.43;16.07;;;;;;;0.98;63.26;93307.27;1806840;79;21469;-57
2021/01/31 08:19:29;;;;;;;21.52;14.43;;;;;;;1.02;63.29;93300.42;1825950;78;21150;-62
2021/01/31 08:22:13;;;;;;;24.45;16.02;;;;;;;1.13;63.03;93289.52;1780577;79;21198;-58
2021/01/31 08:25:07;;;;;;;27.70;17.75;;;;;;;1.23;62.83;93308.83;1785218;78;21492;-59
2021/01/31 08:27:44;;;;;;;25.80;16.65;;;;;;;1.31;62.70;93299.95;1804402;79;21151;-58
2021/01/31 08:30:32;;;;;;;22.60;17.42;;;;;;;1.34;62.51;93305.26;1825766;78;21571;-58
2021/01/31 08:33:27;;;;;;;24.85;17.55;;;;;;;1.33;62.26;93302.98;1806400;79;21072;-58
2021/01/31 08:36:06;;;;;;;26.52;19.60;;;;;;;1.28;62.32;93306.95;1825779;78;22135;-59
2021/01/31 08:38:40;;;;;;;25.65;20.12;;;;;;;1.28;62.65;93306.22;1806622;79;21509;-58
2021/01/31 08:41:13;;;;;;;25.20;19.12;;;;;;;1.48;62.62;93313.66;1825660;78;21453;-59
2021/01/31 08:43:47;;;;;;;28.17;19.40;;;;;;;1.74;62.02;93317.45;1806969;79;21468;-57
2021/01/31 08:46:29;;;;;;;28.87;18.80;;;;;;;1.99;61.16;93316.20;1825725;78;21115;-59
2021/01/31 08:49:06;;;;;;;20.15;13.98;;;;;;;2.02;60.59;93322.90;1807436;79;21198;-58
2021/01/31 08:51:44;;;;;;;24.45;16.95;;;;;;;1.99;60.57;93320.27;1798315;78;21134;-59
2021/01/31 08:54:15;;;;;;;22.85;16.60;;;;;;;2.01;60.65;93317.89;1807537;79;21087;-59
2021/01/31 08:56:55;;;;;;;19.73;15.25;;;;;;;2.19;60.55;93318.95;1826047;78;21159;-68
2021/01/31 08:59:46;;;;;;;25.57;15.93;;;;;;;2.38;59.87;93321.34;1807594;79;21189;-59
2021/01/31 09:02:27;;;;;;;39.83;22.32;;;;;;;2.51;59.21;93334.36;1825974;78;22797;-60
2021/01/31 09:05:01;;;;;;;30.57;18.90;;;;;;;2.41;59.20;93330.75;1807430;79;21108;-59
2021/01/31 09:07:37;;;;;;;34.98;19.98;;;;;;;2.39;58.93;93329.64;1825662;78;21070;-59
2021/01/31 09:10:11;;;;;;;31.12;18.92;;;;;;;2.28;58.74;93331.87;1807246;79;21130;-58
2021/01/31 09:12:41;;;;;;;31.42;19.37;;;;;;;2.15;58.90;93329.12;1825759;78;21630;-57
2021/01/31 09:15:17;;;;;;;28.23;17.92;;;;;;;2.05;58.97;93326.69;1807395;79;21257;-57
2021/01/31 09:17:46;;;;;;;42.13;23.92;;;;;;;2.00;59.41;93325.25;1808888;79;21112;-58
2021/01/31 09:20:28;;;;;;;42.27;25.80;;;;;;;2.01;59.60;93325.45;1825618;78;21147;-56
2021/01/31 09:23:07;;;;;;;39.42;23.50;;;;;;;2.10;59.60;93320.77;1807419;79;21059;-59
2021/01/31 09:25:37;;;;;;;38.67;20.65;;;;;;;2.24;59.93;93313.58;1799887;78;21159;-64
2021/01/31 09:28:21;;;;;;;35.85;21.23;;;;;;;2.42;59.41;93318.70;1807249;79;22120;-60
2021/01/31 09:30:56;;;;;;;39.33;21.95;;;;;;;2.47;58.75;93306.56;1825671;78;21063;-58
2021/01/31 09:33:40;;;;;;;39.30;24.25;;;;;;;2.47;58.72;93316.81;1783946;79;21127;-59
2021/01/31 09:36:30;;;;;;;32.88;20.88;;;;;;;2.58;58.93;93311.08;1825732;78;21468;-57
2021/01/31 09:38:59;;;;;;;30.82;18.77;;;;;;;2.75;58.28;93311.17;1807289;79;21072;-58
2021/01/31 09:41:29;;;;;;;34.27;22.17;;;;;;;2.88;58.43;93318.13;1773054;78;21217;-65
2021/01/31 09:44:02;;;;;;;32.48;21.62;;;;;;;3.11;58.31;93308.92;1807131;79;21634;-57
2021/01/31 09:46:30;;;;;;;24.90;17.30;;;;;;;3.38;57.11;93303.83;1825829;78;21068;-61
2021/01/31 09:49:06;;;;;;;49.75;34.08;;;;;;;3.57;56.13;93296.19;1807443;79;21087;-59
2021/01/31 09:51:35;;;;;;;43.10;27.35;;;;;;;3.75;55.12;93306.48;1825585;78;21111;-58
2021/01/31 09:54:18;;;;;;;62.65;38.92;;;;;;;3.80;54.25;93306.69;1807289;79;22279;-58
2021/01/31 09:56:53;;;;;;;30.37;20.97;;;;;;;3.87;54.67;93297.53;1825805;78;21135;-58
2021/01/31 09:59:32;;;;;;;30.15;20.55;;;;;;;4.01;54.42;93297.03;1807241;79;21093;-58
2021/01/31 10:02:14;;;;;;;26.15;18.48;;;;;;;4.10;53.57;93296.55;1825552;78;21049;-58
2021/01/31 10:04:43;;;;;;;48.20;30.60;;;;;;;4.04;53.70;93301.63;1807410;79;21175;-57
2021/01/31 10:07:33;;;;;;;31.82;21.45;;;;;;;3.99;53.52;93299.44;1825618;78;21374;-59
2021/01/31 10:10:39;;;;;;;25.20;16.45;;;;;;;3.83;53.59;93307.16;1807204;79;21477;-58
2021/01/31 10:13:30;;;;;;;57.33;32.98;;;;;;;3.77;53.30;93315.73;1825612;78;21147;-58
2021/01/31 10:16:01;;;;;;;63.50;41.15;;;;;;;3.73;52.71;93319.75;1807208;79;21084;-59
2021/01/31 10:18:37;;;;;;;50.15;32.13;;;;;;;3.75;53.36;93318.71;1825718;78;21483;-58
2021/01/31 10:21:23;;;;;;;20.52;15.05;;;;;;;3.92;53.13;93314.06;1807220;79;21213;-60
2021/01/31 10:24:06;;;;;;;17.87;13.32;;;;;;;4.16;53.08;93319.84;1825570;78;21079;-58
2021/01/31 10:26:34;;;;;;;14.80;11.20;;;;;;;4.17;52.91;93311.25;1806963;79;21127;-63
2021/01/31 10:29:04;;;;;;;15.70;12.65;;;;;;;4.16;53.18;93307.02;1825814;78;21263;-57
2021/01/31 10:31:38;;;;;;;13.62;11.05;;;;;;;4.19;53.22;93315.66;1807228;79;21163;-59
2021/01/31 10:34:12;;;;;;;14.13;10.75;;;;;;;4.18;53.16;93312.77;1825600;78;21337;-58
2021/01/31 10:36:45;;;;;;;13.38;10.25;;;;;;;4.26;52.98;93316.76;1807235;79;21087;-58
2021/01/31 10:39:19;;;;;;;18.67;13.95;;;;;;;4.30;53.05;93303.81;1825811;78;21586;-57
2021/01/31 10:41:47;;;;;;;15.60;12.05;;;;;;;4.24;53.18;93300.11;1807213;79;21087;-59
2021/01/31 10:44:26;;;;;;;19.65;13.62;;;;;;;4.21;53.06;93301.62;1824335;78;21119;-59
2021/01/31 10:46:54;;;;;;;22.20;15.45;;;;;;;4.15;53.12;93306.86;1823560;78;21476;-58
2021/01/31 10:49:23;;;;;;;20.55;15.88;;;;;;;4.20;53.31;93306.28;1791067;80;21153;-58
2021/01/31 10:51:52;;;;;;;25.20;18.07;;;;;;;4.21;52.66;93305.70;1803210;79;21076;-58
2021/01/31 10:54:22;;;;;;;26.48;18.25;;;;;;;4.17;52.56;93300.38;1791160;79;21530;-58
2021/01/31 10:56:50;;;;;;;35.20;24.30;;;;;;;4.12;52.38;93299.58;1803215;79;21069;-58
2021/01/31 10:59:19;;;;;;;40.55;25.62;;;;;;;4.15;52.48;93305.50;1791183;80;21380;-58
2021/01/31 11:01:48;;;;;;;28.57;21.07;;;;;;;4.21;52.38;93305.09;1803147;79;21089;-58
2021/01/31 11:04:17;;;;;;;28.70;19.52;;;;;;;4.33;52.19;93296.12;1767294;80;21114;-58
2021/01/31 11:06:46;;;;;;;31.45;21.40;;;;;;;4.46;51.61;93296.80;1803428;79;21147;-58
2021/01/31 11:09:16;;;;;;;26.68;18.85;;;;;;;4.45;51.64;93300.72;1791268;80;21130;-58
2021/01/31 11:11:45;;;;;;;39.60;25.92;;;;;;;4.48;51.84;93304.53;1792870;80;21433;-59
2021/01/31 11:14:14;;;;;;;25.30;18.25;;;;;;;4.41;51.91;93308.27;1803317;79;21167;-58
2021/01/31 11:16:42;;;;;;;25.12;18.67;;;;;;;4.20;52.18;93304.92;1767179;80;21149;-60
2021/01/31 11:19:11;;;;;;;23.73;16.45;;;;;;;4.25;52.02;93306.33;1803497;79;21497;-58
2021/01/31 11:21:41;;;;;;;18.48;14.55;;;;;;;4.29;51.92;93300.16;1791421;80;21050;-58
2021/01/31 11:24:10;;;;;;;18.45;13.53;;;;;;;4.30;51.54;93307.89;1803424;79;22812;-58
2021/01/31 11:26:39;;;;;;;36.95;22.20;;;;;;;4.23;51.64;93301.31;1791375;79;21059;-59
2021/01/31 11:29:07;;;;;;;58.70;32.35;;;;;;;4.15;52.30;93304.14;1803614;79;21076;-58
2021/01/31 11:31:37;;;;;;;32.50;20.92;;;;;;;4.16;52.68;93302.16;1791500;79;21162;-59
2021/01/31 11:34:05;;;;;;;32.08;21.30;;;;;;;4.21;52.83;93298.28;1803696;79;21556;-61
2021/01/31 11:36:34;;;;;;;35.52;22.52;;;;;;;4.34;52.21;93297.63;1791541;80;21342;-59
2021/01/31 11:39:08;;;;;;;38.08;26.75;;;;;;;4.21;51.80;93305.70;1803368;79;21183;-59
2021/01/31 11:41:37;;;;;;;30.97;22.15;;;;;;;4.07;52.19;93314.34;1791307;80;21094;-59
2021/01/31 11:44:07;;;;;;;20.40;15.88;;;;;;;4.14;52.61;93305.34;1804597;79;21116;-58
2021/01/31 11:46:37;;;;;;;19.77;15.45;;;;;;;4.15;52.41;93302.77;1806748;79;21156;-59
2021/01/31 11:49:06;;;;;;;22.00;15.20;;;;;;;4.02;52.80;93302.05;1825724;78;21351;-58
2021/01/31 11:51:34;;;;;;;23.67;17.15;;;;;;;3.93;52.98;93303.34;1806784;79;21926;-57
2021/01/31 11:54:04;;;;;;;58.65;38.95;;;;;;;3.78;53.37;93311.03;1825693;78;21139;-59
2021/01/31 11:56:33;;;;;;;60.85;34.58;;;;;;;3.73;53.72;93309.63;1806717;79;21072;-58
2021/01/31 11:59:02;;;;;;;37.10;23.12;;;;;;;3.63;53.83;93312.09;1825679;78;21051;-58
2021/01/31 12:01:31;;;;;;;33.00;21.05;;;;;;;3.50;54.14;93309.99;1806744;79;21368;-59
2021/01/31 12:04:00;;;;;;;28.23;20.37;;;;;;;3.46;54.29;93311.91;1825558;78;21072;-58
2021/01/31 12:06:29;;;;;;;26.77;20.12;;;;;;;3.48;54.36;93310.87;1806761;79;21088;-58
2021/01/31 12:08:58;;;;;;;30.27;21.82;;;;;;;3.45;54.53;93317.92;1825786;78;21495;-58